createdAt,value
2019-04-21T00:00:39.699Z,58.70
2019-04-21T00:03:15.171Z,59.20
2019-04-21T00:05:57.199Z,59.20
2019-04-21T00:08:39.505Z,59.10
2019-04-21T00:11:02.772Z,59.60
2019-04-21T00:13:31.216Z,59.70
2019-04-21T00:15:49.960Z,59.60
2019-04-21T00:18:53.199Z,60.50
2019-04-21T00:21:24.439Z,60.10
2019-04-21T00:24:01.627Z,60.00
2019-04-21T00:26:35.159Z,60.80
2019-04-21T00:29:09.180Z,61.40
2019-04-21T00:31:34.101Z,60.60
2019-04-21T00:33:50.177Z,60.20
2019-04-21T00:36:25.993Z,60.30
2019-04-21T00:39:23.215Z,60.50
2019-04-21T00:41:43.795Z,60.60
2019-04-21T00:44:04.095Z,60.40
2019-04-21T00:46:35.752Z,61.30
2019-04-21T00:49:05.946Z,61.80
2019-04-21T00:51:54.169Z,61.60
2019-04-21T00:54:26.258Z,61.80
2019-04-21T00:56:56.708Z,61.80
2019-04-21T00:59:28.214Z,61.50
2019-04-21T01:01:55.512Z,61.70
2019-04-21T01:04:26.358Z,62.40
2019-04-21T01:06:55.623Z,61.80
2019-04-21T01:09:26.648Z,61.80
2019-04-21T01:11:55.237Z,62.30
2019-04-21T01:14:35.939Z,62.50
2019-04-21T01:17:00.344Z,62.60
2019-04-21T01:19:32.144Z,62.50
2019-04-21T01:21:38.249Z,62.60
2019-04-21T01:24:13.777Z,62.30
2019-04-21T01:26:48.320Z,62.20
2019-04-21T01:29:34.383Z,62.60
2019-04-21T01:32:05.164Z,63.00
2019-04-21T01:34:34.559Z,63.00
2019-04-21T01:36:58.654Z,62.90
2019-04-21T01:39:35.232Z,62.90
2019-04-21T01:42:04.955Z,62.80
2019-04-21T01:44:36.200Z,62.80
2019-04-21T01:46:59.806Z,62.40
2019-04-21T01:49:26.668Z,62.30
2019-04-21T01:52:17.882Z,62.70
2019-04-21T01:55:12.386Z,63.00
2019-04-21T01:58:03.324Z,63.30
2019-04-21T02:00:56.815Z,63.00
2019-04-21T02:03:48.723Z,63.00
2019-04-21T02:06:15.983Z,63.40
2019-04-21T02:08:34.000Z,63.50
2019-04-21T02:11:12.528Z,63.80
2019-04-21T02:13:35.282Z,63.40
2019-04-21T02:16:08.448Z,63.60
2019-04-21T02:18:33.468Z,64.20
2019-04-21T02:20:57.120Z,63.80
2019-04-21T02:23:46.415Z,64.10
2019-04-21T02:26:09.559Z,64.20
2019-04-21T02:31:22.633Z,64.40
2019-04-21T02:33:56.195Z,64.20
2019-04-21T02:39:02.433Z,64.40
2019-04-21T02:41:21.419Z,64.50
2019-04-21T02:44:02.577Z,64.70
2019-04-21T02:46:33.311Z,65.00
2019-04-21T02:49:13.394Z,65.30
2019-04-21T02:51:34.630Z,65.20
2019-04-21T02:59:06.804Z,64.00
2019-04-21T03:01:52.324Z,64.20
2019-04-21T03:04:30.324Z,64.80
2019-04-21T03:07:09.730Z,63.90
2019-04-21T03:09:43.143Z,64.20
2019-04-21T03:12:11.234Z,63.90
2019-04-21T03:14:50.292Z,64.20
2019-04-21T03:17:14.626Z,64.10
2019-04-21T03:25:20.447Z,64.50
2019-04-21T03:29:48.281Z,65.00
2019-04-21T03:32:48.026Z,64.60
2019-04-21T03:35:37.910Z,64.90
2019-04-21T03:37:34.990Z,64.70
2019-04-21T03:39:50.687Z,64.60
2019-04-21T03:42:26.880Z,64.90
2019-04-21T03:44:45.698Z,65.10
2019-04-21T03:47:24.898Z,65.00
2019-04-21T03:49:54.317Z,65.00
2019-04-21T03:52:38.818Z,65.00
2019-04-21T03:58:15.122Z,65.50
2019-04-21T04:00:42.762Z,65.40
2019-04-21T04:03:42.105Z,65.70
2019-04-21T04:06:03.514Z,65.70
2019-04-21T04:11:15.178Z,66.20
2019-04-21T04:13:47.707Z,66.20
2019-04-21T04:16:10.615Z,66.40
2019-04-21T04:18:48.836Z,66.70
2019-04-21T04:21:20.781Z,66.90
2019-04-21T04:23:45.634Z,66.90
2019-04-21T04:26:17.062Z,67.10
2019-04-21T04:31:28.797Z,67.00
2019-04-21T04:33:58.080Z,67.00
2019-04-21T04:39:02.632Z,67.00
2019-04-21T04:44:07.113Z,67.30
2019-04-21T04:46:26.350Z,67.70
2019-04-21T04:49:01.804Z,67.70
2019-04-21T04:51:56.671Z,68.00
2019-04-21T04:53:50.862Z,68.40
2019-04-21T04:56:29.129Z,68.50
2019-04-21T05:06:42.091Z,68.70
2019-04-21T05:21:48.055Z,69.00
2019-04-21T05:24:16.579Z,68.70
2019-04-21T05:26:27.532Z,68.90
2019-04-21T05:28:55.488Z,69.20
2019-04-21T05:32:12.840Z,69.60
2019-04-21T05:34:31.154Z,69.20
2019-04-21T05:37:03.913Z,69.30
2019-04-21T05:40:01.327Z,69.10
2019-04-21T05:42:34.188Z,69.30
2019-04-21T05:45:21.095Z,69.70
2019-04-21T05:48:13.245Z,69.50
2019-04-21T05:50:27.992Z,69.80
2019-04-21T05:53:00.224Z,70.00
2019-04-21T05:55:42.691Z,69.30
2019-04-21T05:58:18.005Z,69.30
2019-04-21T06:01:02.017Z,69.50
2019-04-21T06:03:17.601Z,69.70
2019-04-21T06:05:53.361Z,69.90
2019-04-21T06:08:13.357Z,70.10
2019-04-21T06:10:49.281Z,69.80
2019-04-21T06:13:19.817Z,69.30
2019-04-21T06:15:50.095Z,69.00
2019-04-21T06:18:21.863Z,68.70
2019-04-21T06:20:46.711Z,68.70
2019-04-21T06:23:21.317Z,69.20
2019-04-21T06:26:19.788Z,68.70
2019-04-21T06:28:30.598Z,69.10
2019-04-21T06:30:59.331Z,69.20
2019-04-21T06:33:27.558Z,69.20
2019-04-21T06:36:23.971Z,69.20
2019-04-21T06:46:33.565Z,68.90
2019-04-21T06:56:39.696Z,68.70
2019-04-21T06:59:01.492Z,69.70
2019-04-21T07:01:39.009Z,69.50
2019-04-21T07:04:11.197Z,69.70
2019-04-21T07:06:37.322Z,70.10
2019-04-21T07:11:33.422Z,69.50
2019-04-21T07:14:22.598Z,69.50
2019-04-21T07:16:38.793Z,69.70
2019-04-21T07:19:13.105Z,70.50
2019-04-21T07:21:43.023Z,70.30
2019-04-21T07:24:14.199Z,70.80
2019-04-21T07:26:39.166Z,70.60
2019-04-21T07:29:14.272Z,70.70
2019-04-21T07:31:46.998Z,71.10
2019-04-21T07:34:16.083Z,72.00
2019-04-21T07:36:52.390Z,72.30
2019-04-21T07:39:15.411Z,72.20
2019-04-21T07:41:42.466Z,72.90
2019-04-21T07:44:04.128Z,72.90
2019-04-21T07:46:33.719Z,72.80
2019-04-21T07:49:44.667Z,73.30
2019-04-21T07:52:39.524Z,72.70
2019-04-21T07:55:23.619Z,73.30
2019-04-21T07:57:47.479Z,73.10
2019-04-21T08:00:20.710Z,73.50
2019-04-21T08:03:05.525Z,73.40
2019-04-21T08:07:57.178Z,72.90
2019-04-21T08:10:16.818Z,72.70
2019-04-21T08:12:41.907Z,72.90
2019-04-21T08:15:19.414Z,72.30
2019-04-21T08:17:47.163Z,72.90
2019-04-21T08:20:21.591Z,74.20
2019-04-21T08:22:55.156Z,73.60
2019-04-21T08:25:20.733Z,72.90
2019-04-21T08:27:55.508Z,73.90
2019-04-21T08:30:29.164Z,73.20
2019-04-21T08:33:02.530Z,73.00
2019-04-21T08:37:54.990Z,72.80
2019-04-21T08:40:31.629Z,72.80
2019-04-21T08:42:58.195Z,71.70
2019-04-21T08:48:02.547Z,73.40
2019-04-21T08:50:30.593Z,72.80
2019-04-21T08:53:03.960Z,71.80
2019-04-21T08:55:40.198Z,73.20
2019-04-21T09:01:33.343Z,71.70
2019-04-21T09:04:11.678Z,72.60
2019-04-21T09:07:02.683Z,72.60
2019-04-21T09:09:03.717Z,72.80
2019-04-21T09:11:36.251Z,71.40
2019-04-21T09:14:07.060Z,70.50
2019-04-21T09:16:35.189Z,72.60
2019-04-21T09:19:05.782Z,71.20
2019-04-21T09:21:57.514Z,71.20
2019-04-21T09:24:14.771Z,70.80
2019-04-21T09:26:43.519Z,71.80
2019-04-21T09:29:05.990Z,71.50
2019-04-21T09:31:30.983Z,69.60
2019-04-21T09:34:00.350Z,71.60
2019-04-21T09:36:35.098Z,70.70
2019-04-21T09:39:06.938Z,70.00
2019-04-21T09:41:30.055Z,70.60
2019-04-21T09:44:01.238Z,70.30
2019-04-21T09:46:34.129Z,69.50
2019-04-21T09:49:05.742Z,69.70
2019-04-21T09:51:32.596Z,69.40
2019-04-21T09:54:08.178Z,70.20
2019-04-21T09:56:43.642Z,70.50
2019-04-21T09:59:13.221Z,68.70
2019-04-21T10:01:50.088Z,67.30
2019-04-21T10:04:05.861Z,68.20
2019-04-21T10:06:35.390Z,67.60
2019-04-21T10:09:07.930Z,69.00
2019-04-21T10:11:37.641Z,68.50
2019-04-21T10:14:07.476Z,68.70
2019-04-21T10:17:00.407Z,68.20
2019-04-21T10:19:29.810Z,68.00
2019-04-21T10:22:01.193Z,67.30
2019-04-21T10:24:30.652Z,66.50
2019-04-21T10:27:02.517Z,66.40
2019-04-21T10:29:32.969Z,66.00
2019-04-21T10:32:01.984Z,67.20
2019-04-21T10:34:31.488Z,65.80
2019-04-21T10:37:00.868Z,66.20
2019-04-21T10:39:30.035Z,65.90
2019-04-21T10:41:59.601Z,65.50
2019-04-21T10:44:29.441Z,65.70
2019-04-21T10:46:58.609Z,65.30
2019-04-21T10:49:28.705Z,66.20
2019-04-21T10:51:59.043Z,63.60
2019-04-21T10:54:42.115Z,64.20
2019-04-21T10:57:02.076Z,64.10
2019-04-21T10:59:31.628Z,64.20
2019-04-21T11:02:04.879Z,62.90
2019-04-21T11:04:37.357Z,63.00
2019-04-21T11:07:26.167Z,60.50
2019-04-21T11:09:53.955Z,55.90
2019-04-21T11:12:23.969Z,55.90
2019-04-21T11:14:53.560Z,57.40
2019-04-21T11:17:23.955Z,58.50
2019-04-21T11:19:52.995Z,53.80
2019-04-21T11:22:23.049Z,53.30
2019-04-21T11:24:53.262Z,53.20
2019-04-21T11:27:22.687Z,52.90
2019-04-21T11:29:51.887Z,53.70
2019-04-21T11:32:21.229Z,52.60
2019-04-21T11:34:51.405Z,52.50
2019-04-21T11:37:24.111Z,52.20
2019-04-21T11:40:02.641Z,53.00
2019-04-21T11:42:30.640Z,51.40
2019-04-21T11:45:00.656Z,52.90
2019-04-21T11:47:38.470Z,52.20
2019-04-21T11:50:07.906Z,53.40
2019-04-21T11:52:36.999Z,52.10
2019-04-21T11:55:06.843Z,51.20
2019-04-21T11:57:41.088Z,53.10
2019-04-21T12:00:07.524Z,52.20
2019-04-21T12:02:37.408Z,51.30
2019-04-21T12:05:07.544Z,53.00
2019-04-21T12:07:37.603Z,52.00
2019-04-21T12:10:07.053Z,51.70
2019-04-21T12:12:37.157Z,50.70
2019-04-21T12:15:08.028Z,50.30
2019-04-21T12:17:37.995Z,50.80
2019-04-21T12:20:08.624Z,51.10
2019-04-21T12:22:39.119Z,50.00
2019-04-21T12:25:13.229Z,50.00
2019-04-21T12:27:43.882Z,50.70
2019-04-21T12:30:13.917Z,51.90
2019-04-21T12:33:12.079Z,51.40
2019-04-21T12:35:41.865Z,49.10
2019-04-21T12:38:11.377Z,48.30
2019-04-21T12:40:40.524Z,49.40
2019-04-21T12:43:10.592Z,47.80
2019-04-21T12:45:40.125Z,49.10
2019-04-21T12:48:10.439Z,47.10
2019-04-21T12:50:41.568Z,47.30
2019-04-21T12:53:13.862Z,46.90
2019-04-21T12:55:45.430Z,47.70
2019-04-21T12:58:13.152Z,47.10
2019-04-21T13:00:42.896Z,47.40
2019-04-21T13:03:12.243Z,47.60
2019-04-21T13:05:41.348Z,47.50
2019-04-21T13:08:11.477Z,47.60
2019-04-21T13:10:42.180Z,47.30
2019-04-21T13:13:12.152Z,46.40
2019-04-21T13:15:41.420Z,45.70
2019-04-21T13:18:10.538Z,44.30
2019-04-21T13:20:40.148Z,43.90
2019-04-21T13:23:10.177Z,43.50
2019-04-21T13:25:39.547Z,44.70
2019-04-21T13:28:08.612Z,43.30
2019-04-21T13:30:38.068Z,44.60
2019-04-21T13:33:07.446Z,42.70
2019-04-21T13:35:37.197Z,41.90
2019-04-21T13:38:18.858Z,42.10
2019-04-21T13:41:22.733Z,42.20
2019-04-21T13:43:41.153Z,42.70
2019-04-21T13:46:11.947Z,40.80
2019-04-21T13:48:42.512Z,40.90
2019-04-21T13:51:13.220Z,41.30
2019-04-21T13:53:43.799Z,39.90
2019-04-21T13:56:14.302Z,41.00
2019-04-21T13:58:44.364Z,41.00
2019-04-21T14:01:13.927Z,41.70
2019-04-21T14:03:44.024Z,40.90
2019-04-21T14:06:14.147Z,41.20
2019-04-21T14:08:45.280Z,40.90
2019-04-21T14:11:15.564Z,42.20
2019-04-21T14:13:45.022Z,40.10
2019-04-21T14:16:14.239Z,40.10
2019-04-21T14:18:43.545Z,42.80
2019-04-21T14:21:13.343Z,43.50
2019-04-21T14:23:46.945Z,41.50
2019-04-21T14:26:14.318Z,42.50
2019-04-21T14:28:44.942Z,42.80
2019-04-21T14:31:14.438Z,42.80
2019-04-21T14:33:43.758Z,42.50
2019-04-21T14:36:12.901Z,42.30
2019-04-21T14:38:42.751Z,42.20
2019-04-21T14:41:12.485Z,42.60
2019-04-21T14:43:41.800Z,42.60
2019-04-21T14:46:19.413Z,42.10
2019-04-21T14:49:23.554Z,41.40
2019-04-21T14:52:07.263Z,41.70
2019-04-21T14:55:14.387Z,41.40
2019-04-21T14:57:43.362Z,42.00
2019-04-21T15:00:15.459Z,40.50
2019-04-21T15:02:45.548Z,41.10
2019-04-21T15:05:15.688Z,41.30
2019-04-21T15:07:45.439Z,41.70
2019-04-21T15:10:19.050Z,40.70
2019-04-21T15:12:45.699Z,40.00
2019-04-21T15:15:15.978Z,41.30
2019-04-21T15:17:46.308Z,39.90
2019-04-21T15:20:17.650Z,39.00
2019-04-21T15:22:46.682Z,40.90
2019-04-21T15:25:16.270Z,40.40
2019-04-21T15:27:46.588Z,41.00
2019-04-21T15:30:16.477Z,41.10
2019-04-21T15:32:46.497Z,40.50
2019-04-21T15:35:17.295Z,40.00
2019-04-21T15:37:46.617Z,39.30
2019-04-21T15:40:27.235Z,40.30
2019-04-21T15:42:46.773Z,40.10
2019-04-21T15:45:16.762Z,39.50
2019-04-21T15:47:46.130Z,38.00
2019-04-21T15:50:19.432Z,39.20
2019-04-21T15:52:47.717Z,39.80
2019-04-21T15:55:37.042Z,39.70
2019-04-21T15:58:12.379Z,40.40
2019-04-21T16:00:52.743Z,37.90
2019-04-21T16:03:22.677Z,38.70
2019-04-21T16:05:51.949Z,38.90
2019-04-21T16:08:21.991Z,38.20
2019-04-21T16:10:56.563Z,38.60
2019-04-21T16:13:23.539Z,39.20
2019-04-21T16:15:52.795Z,38.70
2019-04-21T16:18:22.512Z,38.30
2019-04-21T16:20:51.757Z,38.40
2019-04-21T16:23:22.416Z,38.70
2019-04-21T16:25:52.719Z,37.70
2019-04-21T16:28:21.895Z,38.20
2019-04-21T16:30:52.224Z,38.30
2019-04-21T16:33:23.040Z,38.00
2019-04-21T16:35:53.665Z,37.40
2019-04-21T16:38:23.653Z,38.10
2019-04-21T16:40:59.171Z,36.80
2019-04-21T16:43:24.919Z,36.30
2019-04-21T16:45:55.027Z,36.70
2019-04-21T16:48:25.397Z,37.10
2019-04-21T16:50:55.363Z,36.90
2019-04-21T16:53:28.337Z,37.30
2019-04-21T16:56:22.798Z,36.50
2019-04-21T16:58:56.725Z,36.60
2019-04-21T17:01:29.754Z,37.00
2019-04-21T17:04:00.200Z,36.80
2019-04-21T17:06:31.068Z,37.50
2019-04-21T17:09:00.971Z,37.00
2019-04-21T17:11:34.694Z,37.40
2019-04-21T17:14:01.210Z,37.10
2019-04-21T17:17:13.994Z,36.40
2019-04-21T17:19:11.362Z,36.70
2019-04-21T17:21:34.046Z,37.50
2019-04-21T17:24:04.359Z,37.80
2019-04-21T17:26:36.234Z,37.40
2019-04-21T17:29:06.834Z,38.10
2019-04-21T17:31:37.063Z,38.10
2019-04-21T17:34:12.427Z,38.40
2019-04-21T17:36:39.134Z,39.80
2019-04-21T17:39:08.986Z,40.80
2019-04-21T17:41:48.814Z,41.00
2019-04-21T17:44:10.543Z,41.30
2019-04-21T17:46:46.580Z,42.20
2019-04-21T17:49:10.932Z,42.60
2019-04-21T17:51:55.603Z,42.80
2019-04-21T17:54:32.205Z,42.60
2019-04-21T17:57:16.622Z,43.00
2019-04-21T17:59:56.836Z,43.70
2019-04-21T18:02:17.339Z,43.40
2019-04-21T18:04:49.598Z,44.00
2019-04-21T18:07:26.161Z,44.40
2019-04-21T18:10:00.877Z,44.90
2019-04-21T18:12:28.009Z,44.90
2019-04-21T18:14:52.962Z,45.20
2019-04-21T18:17:14.611Z,45.60
2019-04-21T18:19:47.505Z,46.10
2019-04-21T18:22:44.297Z,46.40
2019-04-21T18:25:27.954Z,46.90
2019-04-21T18:27:46.759Z,47.70
2019-04-21T18:30:42.598Z,47.70
2019-04-21T18:33:20.854Z,48.00
2019-04-21T18:36:02.895Z,48.60
2019-04-21T18:39:21.628Z,48.90
2019-04-21T18:41:42.782Z,49.10
2019-04-21T18:47:23.973Z,50.10
2019-04-21T18:49:44.323Z,50.70
2019-04-21T18:52:42.757Z,51.20
2019-04-21T18:55:09.480Z,52.00
2019-04-21T18:57:37.350Z,53.10
2019-04-21T18:59:59.470Z,53.70
2019-04-21T19:02:38.468Z,54.30
2019-04-21T19:05:07.456Z,55.00
2019-04-21T19:07:51.992Z,55.60
2019-04-21T19:13:20.450Z,56.90
2019-04-21T19:15:20.346Z,57.50
2019-04-21T19:20:25.633Z,58.80
2019-04-21T19:22:56.075Z,59.30
2019-04-21T19:25:25.646Z,59.70
2019-04-21T19:27:55.309Z,60.20
2019-04-21T19:30:36.829Z,60.60
2019-04-21T19:33:03.922Z,61.10
2019-04-21T19:35:15.060Z,61.50
2019-04-21T19:37:54.183Z,62.00
2019-04-21T19:40:30.863Z,62.30
2019-04-21T19:43:00.379Z,62.60
2019-04-21T19:45:32.093Z,62.70
2019-04-21T19:48:05.369Z,62.80
2019-04-21T19:50:42.504Z,62.90
2019-04-21T19:53:00.920Z,62.80
2019-04-21T19:55:22.184Z,62.80
2019-04-21T19:57:52.796Z,63.40
2019-04-21T20:00:22.448Z,62.50
2019-04-21T20:02:52.310Z,62.20
2019-04-21T20:05:31.544Z,62.00
2019-04-21T20:08:06.666Z,61.90
2019-04-21T20:10:44.499Z,61.40
2019-04-21T20:13:14.881Z,61.00
2019-04-21T20:15:45.962Z,60.50
2019-04-21T20:18:08.658Z,60.30
2019-04-21T20:20:26.925Z,59.80
2019-04-21T20:22:57.450Z,59.40
2019-04-21T20:25:27.582Z,59.10
2019-04-21T20:28:05.232Z,58.90
2019-04-21T20:30:48.978Z,58.90
2019-04-21T20:35:58.697Z,58.60
2019-04-21T20:38:16.974Z,58.40
2019-04-21T20:40:42.828Z,58.20
2019-04-21T20:43:33.646Z,58.20
2019-04-21T20:45:52.584Z,58.30
2019-04-21T20:48:13.992Z,58.20
2019-04-21T20:50:57.345Z,58.80
2019-04-21T20:53:25.921Z,58.10
2019-04-21T20:55:52.855Z,58.20
2019-04-21T20:58:23.953Z,57.90
2019-04-21T21:01:20.855Z,57.70
2019-04-21T21:03:28.833Z,57.90
2019-04-21T21:05:53.188Z,58.10
2019-04-21T21:08:31.293Z,58.20
2019-04-21T21:10:55.137Z,58.30
2019-04-21T21:13:31.469Z,58.40
2019-04-21T21:16:12.025Z,57.80
2019-04-21T21:18:58.407Z,58.00
2019-04-21T21:21:04.619Z,57.70
2019-04-21T21:23:37.088Z,57.50
2019-04-21T21:26:09.483Z,57.40
2019-04-21T21:28:32.690Z,57.70
2019-04-21T21:31:07.330Z,57.50
2019-04-21T21:33:54.297Z,57.40
2019-04-21T21:36:12.388Z,57.40
2019-04-21T21:38:42.900Z,57.10
2019-04-21T21:41:05.187Z,57.20
2019-04-21T21:43:26.654Z,57.30
2019-04-21T21:45:57.895Z,57.60
2019-04-21T21:48:40.730Z,57.60
2019-04-21T21:51:05.972Z,57.60
2019-04-21T21:53:31.731Z,57.40
2019-04-21T21:55:58.558Z,57.10
2019-04-21T21:58:33.869Z,57.10
2019-04-21T22:01:04.188Z,57.20
2019-04-21T22:03:36.615Z,57.10
2019-04-21T22:06:07.296Z,56.80
2019-04-21T22:09:19.126Z,57.40
2019-04-21T22:11:53.556Z,57.50
2019-04-21T22:14:25.982Z,56.90
2019-04-21T22:17:07.813Z,56.60
2019-04-21T22:19:46.905Z,56.80
2019-04-21T22:22:09.321Z,57.20
2019-04-21T22:24:38.910Z,57.20
2019-04-21T22:26:54.820Z,57.80
2019-04-21T22:29:27.861Z,57.50
2019-04-21T22:32:02.814Z,57.30
2019-04-21T22:34:31.464Z,57.50
2019-04-21T22:37:16.134Z,57.60
2019-04-21T22:40:07.111Z,57.60
2019-04-21T22:42:29.408Z,57.80
2019-04-21T22:44:54.819Z,57.70
2019-04-21T22:47:29.921Z,57.60
2019-04-21T22:49:54.858Z,57.80
2019-04-21T22:52:27.502Z,57.80
2019-04-21T22:54:55.986Z,57.70
2019-04-21T22:57:28.750Z,57.60
2019-04-21T23:00:01.427Z,58.10
2019-04-21T23:02:30.545Z,58.30
2019-04-21T23:04:59.961Z,58.30
2019-04-21T23:07:32.883Z,58.50
2019-04-21T23:09:59.419Z,58.10
2019-04-21T23:12:34.562Z,58.20
2019-04-21T23:15:06.543Z,58.80
2019-04-21T23:17:50.791Z,58.60
2019-04-21T23:20:23.858Z,58.60
2019-04-21T23:23:00.721Z,59.00
2019-04-21T23:25:24.574Z,58.90
2019-04-21T23:27:54.927Z,58.60
2019-04-21T23:30:33.572Z,59.10
2019-04-21T23:32:47.897Z,59.20
2019-04-21T23:35:18.059Z,59.50
2019-04-21T23:37:46.033Z,59.60
2019-04-21T23:40:16.312Z,59.80
2019-04-21T23:42:43.375Z,60.00
2019-04-21T23:45:12.325Z,59.90
2019-04-21T23:47:52.841Z,59.80
2019-04-21T23:50:25.321Z,59.90
2019-04-21T23:52:43.743Z,60.20
2019-04-21T23:55:13.576Z,60.30
2019-04-21T23:57:46.548Z,60.20
